sensor_id;sensor_type;location;lat;lon;timestamp;P1;durP1;ratioP1;P2;durP2;ratioP2
63203;SDS011;49297;43.210;27.914;2023-07-22T00:00:49;9.68;;;6.55;;
63203;SDS011;49297;43.210;27.914;2023-07-22T00:03:17;8.00;;;6.22;;
63203;SDS011;49297;43.210;27.914;2023-07-22T00:05:45;7.85;;;6.10;;
63203;SDS011;49297;43.210;27.914;2023-07-22T00:08:14;9.00;;;6.00;;
63203;SDS011;49297;43.210;27.914;2023-07-22T00:10:42;7.82;;;6.57;;
63203;SDS011;49297;43.210;27.914;2023-07-22T00:13:11;11.67;;;7.13;;
63203;SDS011;49297;43.210;27.914;2023-07-22T00:15:39;8.73;;;6.20;;
63203;SDS011;49297;43.210;27.914;2023-07-22T00:18:08;11.98;;;7.80;;
63203;SDS011;49297;43.210;27.914;2023-07-22T00:20:36;8.82;;;7.03;;
63203;SDS011;49297;43.210;27.914;2023-07-22T00:23:05;7.47;;;6.72;;
63203;SDS011;49297;43.210;27.914;2023-07-22T00:25:33;6.18;;;5.57;;
63203;SDS011;49297;43.210;27.914;2023-07-22T00:28:01;7.10;;;6.40;;
63203;SDS011;49297;43.210;27.914;2023-07-22T00:30:30;8.15;;;6.68;;
63203;SDS011;49297;43.210;27.914;2023-07-22T00:32:59;9.90;;;6.25;;
63203;SDS011;49297;43.210;27.914;2023-07-22T00:35:27;7.13;;;6.15;;
63203;SDS011;49297;43.210;27.914;2023-07-22T00:37:57;7.15;;;6.40;;
63203;SDS011;49297;43.210;27.914;2023-07-22T00:40:27;7.45;;;6.63;;
63203;SDS011;49297;43.210;27.914;2023-07-22T00:42:59;8.57;;;6.43;;
63203;SDS011;49297;43.210;27.914;2023-07-22T00:45:27;6.33;;;5.73;;
63203;SDS011;49297;43.210;27.914;2023-07-22T00:47:56;6.60;;;5.90;;
63203;SDS011;49297;43.210;27.914;2023-07-22T00:50:24;7.93;;;6.20;;
63203;SDS011;49297;43.210;27.914;2023-07-22T00:52:53;7.88;;;7.03;;
63203;SDS011;49297;43.210;27.914;2023-07-22T00:55:22;8.70;;;6.57;;
63203;SDS011;49297;43.210;27.914;2023-07-22T00:57:50;8.20;;;6.43;;
63203;SDS011;49297;43.210;27.914;2023-07-22T01:00:20;9.35;;;6.80;;
63203;SDS011;49297;43.210;27.914;2023-07-22T01:02:48;11.13;;;5.93;;
63203;SDS011;49297;43.210;27.914;2023-07-22T01:05:17;8.07;;;6.78;;
63203;SDS011;49297;43.210;27.914;2023-07-22T01:07:45;6.72;;;6.10;;
63203;SDS011;49297;43.210;27.914;2023-07-22T01:10:14;6.82;;;5.75;;
63203;SDS011;49297;43.210;27.914;2023-07-22T01:12:43;12.50;;;7.75;;
63203;SDS011;49297;43.210;27.914;2023-07-22T01:15:11;7.68;;;6.38;;
63203;SDS011;49297;43.210;27.914;2023-07-22T01:17:40;10.35;;;7.22;;
63203;SDS011;49297;43.210;27.914;2023-07-22T01:20:09;6.60;;;5.90;;
63203;SDS011;49297;43.210;27.914;2023-07-22T01:22:39;7.97;;;6.43;;
63203;SDS011;49297;43.210;27.914;2023-07-22T01:25:10;6.85;;;6.15;;
63203;SDS011;49297;43.210;27.914;2023-07-22T01:27:38;7.65;;;6.30;;
63203;SDS011;49297;43.210;27.914;2023-07-22T01:30:07;7.18;;;6.45;;
63203;SDS011;49297;43.210;27.914;2023-07-22T01:32:37;7.75;;;6.68;;
63203;SDS011;49297;43.210;27.914;2023-07-22T01:35:06;8.03;;;6.70;;
63203;SDS011;49297;43.210;27.914;2023-07-22T01:37:36;6.40;;;5.80;;
63203;SDS011;49297;43.210;27.914;2023-07-22T01:40:05;6.88;;;6.18;;
63203;SDS011;49297;43.210;27.914;2023-07-22T01:42:40;7.53;;;6.65;;
63203;SDS011;49297;43.210;27.914;2023-07-22T01:45:10;7.28;;;6.55;;
63203;SDS011;49297;43.210;27.914;2023-07-22T01:47:39;7.65;;;6.72;;
63203;SDS011;49297;43.210;27.914;2023-07-22T01:50:07;6.03;;;5.43;;
63203;SDS011;49297;43.210;27.914;2023-07-22T01:52:37;7.80;;;6.70;;
63203;SDS011;49297;43.210;27.914;2023-07-22T01:55:06;6.35;;;5.75;;
63203;SDS011;49297;43.210;27.914;2023-07-22T01:57:37;7.65;;;6.63;;
63203;SDS011;49297;43.210;27.914;2023-07-22T02:00:06;6.60;;;6.00;;
63203;SDS011;49297;43.210;27.914;2023-07-22T02:02:37;10.90;;;7.30;;
63203;SDS011;49297;43.210;27.914;2023-07-22T02:05:06;7.10;;;6.40;;
63203;SDS011;49297;43.210;27.914;2023-07-22T02:07:55;8.68;;;7.30;;
63203;SDS011;49297;43.210;27.914;2023-07-22T02:10:23;8.05;;;6.50;;
63203;SDS011;49297;43.210;27.914;2023-07-22T02:12:51;7.25;;;6.57;;
63203;SDS011;49297;43.210;27.914;2023-07-22T02:15:20;8.38;;;6.95;;
63203;SDS011;49297;43.210;27.914;2023-07-22T02:17:50;6.60;;;5.68;;
63203;SDS011;49297;43.210;27.914;2023-07-22T02:20:18;6.72;;;5.75;;
63203;SDS011;49297;43.210;27.914;2023-07-22T02:22:47;9.13;;;6.53;;
63203;SDS011;49297;43.210;27.914;2023-07-22T02:25:15;7.63;;;6.38;;
63203;SDS011;49297;43.210;27.914;2023-07-22T02:27:44;7.13;;;6.50;;
63203;SDS011;49297;43.210;27.914;2023-07-22T02:30:12;6.75;;;6.05;;
63203;SDS011;49297;43.210;27.914;2023-07-22T02:32:41;7.32;;;6.60;;
63203;SDS011;49297;43.210;27.914;2023-07-22T02:35:09;9.23;;;7.32;;
63203;SDS011;49297;43.210;27.914;2023-07-22T02:37:38;7.07;;;6.40;;
63203;SDS011;49297;43.210;27.914;2023-07-22T02:40:07;11.43;;;6.72;;
63203;SDS011;49297;43.210;27.914;2023-07-22T02:42:39;8.20;;;5.97;;
63203;SDS011;49297;43.210;27.914;2023-07-22T02:45:08;7.00;;;6.30;;
63203;SDS011;49297;43.210;27.914;2023-07-22T02:47:38;6.72;;;5.80;;
63203;SDS011;49297;43.210;27.914;2023-07-22T02:50:07;7.47;;;6.78;;
63203;SDS011;49297;43.210;27.914;2023-07-22T02:52:37;7.35;;;6.63;;
63203;SDS011;49297;43.210;27.914;2023-07-22T02:57:40;9.17;;;7.27;;
63203;SDS011;49297;43.210;27.914;2023-07-22T03:00:09;7.15;;;6.45;;
63203;SDS011;49297;43.210;27.914;2023-07-22T03:02:39;7.97;;;6.30;;
63203;SDS011;49297;43.210;27.914;2023-07-22T03:05:07;8.55;;;7.75;;
63203;SDS011;49297;43.210;27.914;2023-07-22T03:07:37;7.47;;;6.13;;
63203;SDS011;49297;43.210;27.914;2023-07-22T03:10:06;8.35;;;6.40;;
63203;SDS011;49297;43.210;27.914;2023-07-22T03:12:36;7.20;;;6.53;;
63203;SDS011;49297;43.210;27.914;2023-07-22T03:15:05;9.75;;;6.65;;
63203;SDS011;49297;43.210;27.914;2023-07-22T03:17:36;8.32;;;7.15;;
63203;SDS011;49297;43.210;27.914;2023-07-22T03:20:05;10.50;;;7.68;;
63203;SDS011;49297;43.210;27.914;2023-07-22T03:22:46;7.28;;;6.35;;
63203;SDS011;49297;43.210;27.914;2023-07-22T03:25:15;7.88;;;7.07;;
63203;SDS011;49297;43.210;27.914;2023-07-22T03:27:44;7.70;;;6.90;;
63203;SDS011;49297;43.210;27.914;2023-07-22T03:30:15;9.82;;;6.53;;
63203;SDS011;49297;43.210;27.914;2023-07-22T03:32:59;7.70;;;6.97;;
63203;SDS011;49297;43.210;27.914;2023-07-22T03:35:28;7.72;;;6.68;;
63203;SDS011;49297;43.210;27.914;2023-07-22T03:37:56;8.65;;;6.78;;
63203;SDS011;49297;43.210;27.914;2023-07-22T03:40:25;8.40;;;6.47;;
63203;SDS011;49297;43.210;27.914;2023-07-22T03:42:57;7.97;;;7.20;;
63203;SDS011;49297;43.210;27.914;2023-07-22T03:45:25;8.75;;;7.75;;
63203;SDS011;49297;43.210;27.914;2023-07-22T03:47:56;9.32;;;7.72;;
63203;SDS011;49297;43.210;27.914;2023-07-22T03:50:26;8.18;;;7.38;;
63203;SDS011;49297;43.210;27.914;2023-07-22T03:52:54;13.33;;;7.73;;
63203;SDS011;49297;43.210;27.914;2023-07-22T03:55:23;9.83;;;7.63;;
63203;SDS011;49297;43.210;27.914;2023-07-22T03:57:51;7.13;;;6.35;;
63203;SDS011;49297;43.210;27.914;2023-07-22T04:00:20;7.47;;;6.70;;
63203;SDS011;49297;43.210;27.914;2023-07-22T04:02:48;7.30;;;6.60;;
63203;SDS011;49297;43.210;27.914;2023-07-22T04:05:17;8.27;;;7.57;;
63203;SDS011;49297;43.210;27.914;2023-07-22T04:07:45;7.28;;;6.57;;
63203;SDS011;49297;43.210;27.914;2023-07-22T04:10:13;7.25;;;6.63;;
63203;SDS011;49297;43.210;27.914;2023-07-22T04:12:42;7.53;;;6.75;;
63203;SDS011;49297;43.210;27.914;2023-07-22T04:15:10;9.30;;;6.75;;
63203;SDS011;49297;43.210;27.914;2023-07-22T04:17:40;8.10;;;6.38;;
63203;SDS011;49297;43.210;27.914;2023-07-22T04:20:08;7.20;;;6.50;;
63203;SDS011;49297;43.210;27.914;2023-07-22T04:22:38;7.20;;;6.25;;
63203;SDS011;49297;43.210;27.914;2023-07-22T04:25:07;7.03;;;6.32;;
63203;SDS011;49297;43.210;27.914;2023-07-22T04:27:36;8.20;;;6.07;;
63203;SDS011;49297;43.210;27.914;2023-07-22T04:30:05;7.50;;;6.45;;
63203;SDS011;49297;43.210;27.914;2023-07-22T04:32:36;8.43;;;7.53;;
63203;SDS011;49297;43.210;27.914;2023-07-22T04:35:04;6.05;;;5.45;;
63203;SDS011;49297;43.210;27.914;2023-07-22T04:37:35;6.20;;;5.65;;
63203;SDS011;49297;43.210;27.914;2023-07-22T04:40:04;6.53;;;5.22;;
63203;SDS011;49297;43.210;27.914;2023-07-22T04:42:40;7.35;;;5.72;;
63203;SDS011;49297;43.210;27.914;2023-07-22T04:45:09;6.22;;;5.63;;
63203;SDS011;49297;43.210;27.914;2023-07-22T04:47:38;7.68;;;5.93;;
63203;SDS011;49297;43.210;27.914;2023-07-22T04:50:10;9.68;;;5.82;;
63203;SDS011;49297;43.210;27.914;2023-07-22T04:52:38;6.45;;;5.85;;
63203;SDS011;49297;43.210;27.914;2023-07-22T04:55:09;11.45;;;6.00;;
63203;SDS011;49297;43.210;27.914;2023-07-22T04:57:39;5.90;;;5.30;;
63203;SDS011;49297;43.210;27.914;2023-07-22T05:00:11;6.28;;;5.68;;
63203;SDS011;49297;43.210;27.914;2023-07-22T05:02:42;10.30;;;5.25;;
63203;SDS011;49297;43.210;27.914;2023-07-22T05:05:12;6.60;;;4.85;;
63203;SDS011;49297;43.210;27.914;2023-07-22T05:07:40;7.32;;;5.53;;
63203;SDS011;49297;43.210;27.914;2023-07-22T05:10:09;5.15;;;4.65;;
63203;SDS011;49297;43.210;27.914;2023-07-22T05:12:41;8.18;;;5.82;;
63203;SDS011;49297;43.210;27.914;2023-07-22T05:15:10;5.43;;;4.72;;
63203;SDS011;49297;43.210;27.914;2023-07-22T05:17:39;8.13;;;6.03;;
63203;SDS011;49297;43.210;27.914;2023-07-22T05:20:08;8.10;;;5.93;;
63203;SDS011;49297;43.210;27.914;2023-07-22T05:22:57;7.32;;;5.82;;
63203;SDS011;49297;43.210;27.914;2023-07-22T05:25:26;6.95;;;5.38;;
63203;SDS011;49297;43.210;27.914;2023-07-22T05:27:54;6.80;;;5.50;;
63203;SDS011;49297;43.210;27.914;2023-07-22T05:30:22;6.22;;;5.72;;
63203;SDS011;49297;43.210;27.914;2023-07-22T05:32:51;5.57;;;5.07;;
63203;SDS011;49297;43.210;27.914;2023-07-22T05:35:20;6.40;;;4.75;;
63203;SDS011;49297;43.210;27.914;2023-07-22T05:37:48;6.03;;;5.15;;
63203;SDS011;49297;43.210;27.914;2023-07-22T05:40:16;6.88;;;5.90;;
63203;SDS011;49297;43.210;27.914;2023-07-22T05:42:45;6.33;;;4.97;;
63203;SDS011;49297;43.210;27.914;2023-07-22T05:45:13;6.72;;;6.03;;
63203;SDS011;49297;43.210;27.914;2023-07-22T05:47:42;5.70;;;4.97;;
63203;SDS011;49297;43.210;27.914;2023-07-22T05:50:10;5.40;;;4.57;;
63203;SDS011;49297;43.210;27.914;2023-07-22T05:52:39;7.22;;;5.55;;
63203;SDS011;49297;43.210;27.914;2023-07-22T05:55:07;5.25;;;4.75;;
63203;SDS011;49297;43.210;27.914;2023-07-22T05:57:36;8.30;;;5.10;;
63203;SDS011;49297;43.210;27.914;2023-07-22T06:00:05;6.80;;;5.47;;
63203;SDS011;49297;43.210;27.914;2023-07-22T06:02:39;6.37;;;4.67;;
63203;SDS011;49297;43.210;27.914;2023-07-22T06:05:07;5.97;;;5.07;;
63203;SDS011;49297;43.210;27.914;2023-07-22T06:07:36;5.15;;;4.65;;
63203;SDS011;49297;43.210;27.914;2023-07-22T06:10:05;6.43;;;5.22;;
63203;SDS011;49297;43.210;27.914;2023-07-22T06:12:36;6.63;;;5.95;;
63203;SDS011;49297;43.210;27.914;2023-07-22T06:15:05;6.00;;;5.40;;
63203;SDS011;49297;43.210;27.914;2023-07-22T06:17:35;6.40;;;5.80;;
63203;SDS011;49297;43.210;27.914;2023-07-22T06:20:04;7.00;;;4.97;;
63203;SDS011;49297;43.210;27.914;2023-07-22T06:22:36;6.47;;;5.70;;
63203;SDS011;49297;43.210;27.914;2023-07-22T06:25:05;5.78;;;4.85;;
63203;SDS011;49297;43.210;27.914;2023-07-22T06:27:34;8.93;;;4.88;;
63203;SDS011;49297;43.210;27.914;2023-07-22T06:30:03;5.32;;;4.82;;
63203;SDS011;49297;43.210;27.914;2023-07-22T06:32:35;8.93;;;4.63;;
63203;SDS011;49297;43.210;27.914;2023-07-22T06:35:06;6.35;;;5.03;;
63203;SDS011;49297;43.210;27.914;2023-07-22T06:37:35;6.23;;;5.50;;
63203;SDS011;49297;43.210;27.914;2023-07-22T06:40:04;8.45;;;5.25;;
63203;SDS011;49297;43.210;27.914;2023-07-22T06:42:35;9.75;;;6.20;;
63203;SDS011;49297;43.210;27.914;2023-07-22T06:45:04;5.53;;;4.88;;
63203;SDS011;49297;43.210;27.914;2023-07-22T06:47:35;6.40;;;4.68;;
63203;SDS011;49297;43.210;27.914;2023-07-22T06:50:04;5.40;;;4.97;;
63203;SDS011;49297;43.210;27.914;2023-07-22T06:52:34;6.25;;;5.65;;
63203;SDS011;49297;43.210;27.914;2023-07-22T06:55:02;5.85;;;5.35;;
63203;SDS011;49297;43.210;27.914;2023-07-22T06:57:33;6.28;;;5.68;;
63203;SDS011;49297;43.210;27.914;2023-07-22T07:00:01;6.60;;;5.28;;
63203;SDS011;49297;43.210;27.914;2023-07-22T07:02:30;6.27;;;5.73;;
63203;SDS011;49297;43.210;27.914;2023-07-22T07:04:58;6.33;;;5.20;;
63203;SDS011;49297;43.210;27.914;2023-07-22T07:07:27;9.75;;;4.85;;
63203;SDS011;49297;43.210;27.914;2023-07-22T07:09:55;5.20;;;4.70;;
63203;SDS011;49297;43.210;27.914;2023-07-22T07:12:23;7.22;;;5.18;;
63203;SDS011;49297;43.210;27.914;2023-07-22T07:14:52;8.98;;;5.30;;
63203;SDS011;49297;43.210;27.914;2023-07-22T07:17:21;5.95;;;5.32;;
63203;SDS011;49297;43.210;27.914;2023-07-22T07:19:49;10.57;;;5.75;;
63203;SDS011;49297;43.210;27.914;2023-07-22T07:22:18;5.93;;;5.32;;
63203;SDS011;49297;43.210;27.914;2023-07-22T07:24:46;10.25;;;5.50;;
63203;SDS011;49297;43.210;27.914;2023-07-22T07:27:14;6.50;;;5.82;;
63203;SDS011;49297;43.210;27.914;2023-07-22T07:29:42;17.17;;;15.63;;
63203;SDS011;49297;43.210;27.914;2023-07-22T07:32:11;6.10;;;5.50;;
63203;SDS011;49297;43.210;27.914;2023-07-22T07:34:39;6.53;;;5.15;;
63203;SDS011;49297;43.210;27.914;2023-07-22T07:37:08;6.63;;;4.93;;
63203;SDS011;49297;43.210;27.914;2023-07-22T07:39:36;6.93;;;5.65;;
63203;SDS011;49297;43.210;27.914;2023-07-22T07:42:04;6.32;;;5.03;;
63203;SDS011;49297;43.210;27.914;2023-07-22T07:44:34;8.00;;;5.63;;
63203;SDS011;49297;43.210;27.914;2023-07-22T07:47:02;6.95;;;6.00;;
63203;SDS011;49297;43.210;27.914;2023-07-22T07:49:33;8.32;;;5.40;;
63203;SDS011;49297;43.210;27.914;2023-07-22T07:52:01;14.63;;;5.18;;
63203;SDS011;49297;43.210;27.914;2023-07-22T07:54:30;6.68;;;5.60;;
63203;SDS011;49297;43.210;27.914;2023-07-22T07:56:58;6.72;;;5.03;;
63203;SDS011;49297;43.210;27.914;2023-07-22T07:59:26;5.35;;;4.88;;
63203;SDS011;49297;43.210;27.914;2023-07-22T08:01:54;5.83;;;5.37;;
63203;SDS011;49297;43.210;27.914;2023-07-22T08:04:23;6.97;;;5.40;;
63203;SDS011;49297;43.210;27.914;2023-07-22T08:06:51;7.23;;;5.30;;
63203;SDS011;49297;43.210;27.914;2023-07-22T08:09:20;8.50;;;5.00;;
63203;SDS011;49297;43.210;27.914;2023-07-22T08:11:48;5.38;;;4.53;;
63203;SDS011;49297;43.210;27.914;2023-07-22T08:14:17;5.13;;;4.70;;
63203;SDS011;49297;43.210;27.914;2023-07-22T08:16:45;6.35;;;4.75;;
63203;SDS011;49297;43.210;27.914;2023-07-22T08:19:14;6.05;;;4.60;;
63203;SDS011;49297;43.210;27.914;2023-07-22T08:21:42;4.75;;;4.30;;
63203;SDS011;49297;43.210;27.914;2023-07-22T08:24:11;5.53;;;4.47;;
63203;SDS011;49297;43.210;27.914;2023-07-22T08:26:39;6.47;;;5.88;;
63203;SDS011;49297;43.210;27.914;2023-07-22T08:29:23;8.48;;;4.47;;
63203;SDS011;49297;43.210;27.914;2023-07-22T08:31:52;5.15;;;4.65;;
63203;SDS011;49297;43.210;27.914;2023-07-22T08:34:20;5.53;;;4.47;;
63203;SDS011;49297;43.210;27.914;2023-07-22T08:36:49;5.50;;;4.70;;
63203;SDS011;49297;43.210;27.914;2023-07-22T08:39:18;6.37;;;4.67;;
63203;SDS011;49297;43.210;27.914;2023-07-22T08:41:48;5.17;;;4.67;;
63203;SDS011;49297;43.210;27.914;2023-07-22T08:44:19;5.27;;;4.77;;
63203;SDS011;49297;43.210;27.914;2023-07-22T08:46:49;4.30;;;3.90;;
63203;SDS011;49297;43.210;27.914;2023-07-22T08:49:20;6.07;;;5.03;;
63203;SDS011;49297;43.210;27.914;2023-07-22T08:51:49;6.63;;;4.78;;
63203;SDS011;49297;43.210;27.914;2023-07-22T08:54:18;6.85;;;5.80;;
63203;SDS011;49297;43.210;27.914;2023-07-22T08:56:48;6.50;;;4.57;;
63203;SDS011;49297;43.210;27.914;2023-07-22T08:59:17;8.30;;;5.00;;
63203;SDS011;49297;43.210;27.914;2023-07-22T09:01:45;7.03;;;4.57;;
63203;SDS011;49297;43.210;27.914;2023-07-22T09:04:15;5.40;;;4.90;;
63203;SDS011;49297;43.210;27.914;2023-07-22T09:06:45;5.93;;;5.32;;
63203;SDS011;49297;43.210;27.914;2023-07-22T09:09:14;5.30;;;4.80;;
63203;SDS011;49297;43.210;27.914;2023-07-22T09:11:42;8.50;;;5.40;;
63203;SDS011;49297;43.210;27.914;2023-07-22T09:14:12;5.30;;;4.80;;
63203;SDS011;49297;43.210;27.914;2023-07-22T09:16:41;5.15;;;4.68;;
63203;SDS011;49297;43.210;27.914;2023-07-22T09:19:10;6.93;;;5.45;;
63203;SDS011;49297;43.210;27.914;2023-07-22T09:21:39;6.32;;;4.72;;
63203;SDS011;49297;43.210;27.914;2023-07-22T09:24:23;4.53;;;4.22;;
63203;SDS011;49297;43.210;27.914;2023-07-22T09:27:08;9.67;;;5.73;;
63203;SDS011;49297;43.210;27.914;2023-07-22T09:29:37;5.97;;;5.38;;
63203;SDS011;49297;43.210;27.914;2023-07-22T09:32:06;9.00;;;5.50;;
63203;SDS011;49297;43.210;27.914;2023-07-22T09:34:35;5.93;;;4.82;;
63203;SDS011;49297;43.210;27.914;2023-07-22T09:37:04;5.88;;;4.55;;
63203;SDS011;49297;43.210;27.914;2023-07-22T09:39:32;5.28;;;4.63;;
63203;SDS011;49297;43.210;27.914;2023-07-22T09:42:03;4.63;;;4.20;;
63203;SDS011;49297;43.210;27.914;2023-07-22T09:44:32;5.63;;;4.65;;
63203;SDS011;49297;43.210;27.914;2023-07-22T09:47:06;5.10;;;4.60;;
63203;SDS011;49297;43.210;27.914;2023-07-22T09:49:39;5.38;;;4.05;;
63203;SDS011;49297;43.210;27.914;2023-07-22T09:52:09;5.03;;;4.63;;
63203;SDS011;49297;43.210;27.914;2023-07-22T09:54:47;7.45;;;5.75;;
63203;SDS011;49297;43.210;27.914;2023-07-22T09:57:17;5.57;;;4.45;;
63203;SDS011;49297;43.210;27.914;2023-07-22T09:59:47;6.70;;;4.77;;
63203;SDS011;49297;43.210;27.914;2023-07-22T10:02:18;5.00;;;4.60;;
63203;SDS011;49297;43.210;27.914;2023-07-22T10:04:52;6.20;;;5.60;;
63203;SDS011;49297;43.210;27.914;2023-07-22T10:07:25;7.07;;;5.30;;
63203;SDS011;49297;43.210;27.914;2023-07-22T10:09:54;5.75;;;5.22;;
63203;SDS011;49297;43.210;27.914;2023-07-22T10:12:24;5.68;;;5.07;;
63203;SDS011;49297;43.210;27.914;2023-07-22T10:14:54;6.73;;;5.23;;
63203;SDS011;49297;43.210;27.914;2023-07-22T10:17:23;10.95;;;5.85;;
63203;SDS011;49297;43.210;27.914;2023-07-22T10:19:54;5.72;;;5.20;;
63203;SDS011;49297;43.210;27.914;2023-07-22T10:22:22;7.07;;;5.47;;
63203;SDS011;49297;43.210;27.914;2023-07-22T10:24:51;5.60;;;4.65;;
63203;SDS011;49297;43.210;27.914;2023-07-22T10:27:20;7.57;;;4.90;;
63203;SDS011;49297;43.210;27.914;2023-07-22T10:29:50;5.47;;;5.07;;
63203;SDS011;49297;43.210;27.914;2023-07-22T10:32:19;8.07;;;5.22;;
63203;SDS011;49297;43.210;27.914;2023-07-22T10:34:48;7.32;;;4.20;;
63203;SDS011;49297;43.210;27.914;2023-07-22T10:37:19;4.53;;;4.13;;
63203;SDS011;49297;43.210;27.914;2023-07-22T10:39:50;5.10;;;4.03;;
63203;SDS011;49297;43.210;27.914;2023-07-22T10:42:25;5.45;;;4.60;;
63203;SDS011;49297;43.210;27.914;2023-07-22T10:44:53;5.57;;;4.72;;
63203;SDS011;49297;43.210;27.914;2023-07-22T10:47:33;7.80;;;4.37;;
63203;SDS011;49297;43.210;27.914;2023-07-22T10:50:06;4.15;;;3.75;;
63203;SDS011;49297;43.210;27.914;2023-07-22T10:52:40;4.57;;;4.15;;
63203;SDS011;49297;43.210;27.914;2023-07-22T10:55:28;5.60;;;4.70;;
63203;SDS011;49297;43.210;27.914;2023-07-22T10:57:58;5.88;;;4.13;;
63203;SDS011;49297;43.210;27.914;2023-07-22T11:00:31;5.00;;;4.43;;
63203;SDS011;49297;43.210;27.914;2023-07-22T11:03:10;7.90;;;4.10;;
63203;SDS011;49297;43.210;27.914;2023-07-22T11:05:49;5.00;;;4.50;;
63203;SDS011;49297;43.210;27.914;2023-07-22T11:08:34;4.63;;;4.07;;
63203;SDS011;49297;43.210;27.914;2023-07-22T11:11:04;7.70;;;5.18;;
63203;SDS011;49297;43.210;27.914;2023-07-22T11:13:38;6.07;;;4.63;;
63203;SDS011;49297;43.210;27.914;2023-07-22T11:16:09;6.50;;;4.95;;
63203;SDS011;49297;43.210;27.914;2023-07-22T11:18:39;7.95;;;4.85;;
63203;SDS011;49297;43.210;27.914;2023-07-22T11:21:11;4.43;;;4.03;;
63203;SDS011;49297;43.210;27.914;2023-07-22T11:23:40;4.82;;;4.38;;
63203;SDS011;49297;43.210;27.914;2023-07-22T11:26:08;9.98;;;4.45;;
63203;SDS011;49297;43.210;27.914;2023-07-22T11:28:37;6.97;;;3.92;;
63203;SDS011;49297;43.210;27.914;2023-07-22T11:31:07;5.00;;;3.87;;
63203;SDS011;49297;43.210;27.914;2023-07-22T11:33:39;4.60;;;4.18;;
63203;SDS011;49297;43.210;27.914;2023-07-22T11:36:09;5.40;;;4.47;;
63203;SDS011;49297;43.210;27.914;2023-07-22T11:38:38;6.55;;;5.18;;
63203;SDS011;49297;43.210;27.914;2023-07-22T11:41:06;5.65;;;4.10;;
63203;SDS011;49297;43.210;27.914;2023-07-22T11:43:37;5.07;;;4.20;;
63203;SDS011;49297;43.210;27.914;2023-07-22T11:46:06;7.07;;;3.80;;
63203;SDS011;49297;43.210;27.914;2023-07-22T11:48:34;7.30;;;4.28;;
63203;SDS011;49297;43.210;27.914;2023-07-22T11:51:03;6.43;;;4.65;;
63203;SDS011;49297;43.210;27.914;2023-07-22T11:53:32;5.82;;;3.85;;
63203;SDS011;49297;43.210;27.914;2023-07-22T11:56:00;4.53;;;4.13;;
63203;SDS011;49297;43.210;27.914;2023-07-22T11:58:31;7.28;;;4.32;;
63203;SDS011;49297;43.210;27.914;2023-07-22T12:01:02;4.18;;;3.78;;
63203;SDS011;49297;43.210;27.914;2023-07-22T12:03:34;4.20;;;3.78;;
63203;SDS011;49297;43.210;27.914;2023-07-22T12:06:01;6.73;;;3.50;;
63203;SDS011;49297;43.210;27.914;2023-07-22T12:08:31;5.22;;;3.78;;
63203;SDS011;49297;43.210;27.914;2023-07-22T12:11:00;4.45;;;3.83;;
63203;SDS011;49297;43.210;27.914;2023-07-22T12:13:35;4.43;;;3.97;;
63203;SDS011;49297;43.210;27.914;2023-07-22T12:16:04;4.80;;;3.47;;
63203;SDS011;49297;43.210;27.914;2023-07-22T12:18:46;6.93;;;4.25;;
63203;SDS011;49297;43.210;27.914;2023-07-22T12:21:15;5.28;;;3.72;;
63203;SDS011;49297;43.210;27.914;2023-07-22T12:23:45;7.53;;;4.20;;
63203;SDS011;49297;43.210;27.914;2023-07-22T12:26:14;4.43;;;3.35;;
63203;SDS011;49297;43.210;27.914;2023-07-22T12:28:42;5.03;;;3.58;;
63203;SDS011;49297;43.210;27.914;2023-07-22T12:31:10;5.20;;;4.00;;
63203;SDS011;49297;43.210;27.914;2023-07-22T12:33:38;4.45;;;3.67;;
63203;SDS011;49297;43.210;27.914;2023-07-22T12:36:07;4.47;;;3.77;;
63203;SDS011;49297;43.210;27.914;2023-07-22T12:38:35;4.35;;;3.47;;
63203;SDS011;49297;43.210;27.914;2023-07-22T12:41:04;4.07;;;3.67;;
63203;SDS011;49297;43.210;27.914;2023-07-22T12:43:32;5.95;;;3.88;;
63203;SDS011;49297;43.210;27.914;2023-07-22T12:46:00;4.25;;;3.42;;
63203;SDS011;49297;43.210;27.914;2023-07-22T12:48:28;4.17;;;3.67;;
63203;SDS011;49297;43.210;27.914;2023-07-22T12:50:57;6.35;;;3.75;;
63203;SDS011;49297;43.210;27.914;2023-07-22T12:53:26;7.07;;;3.83;;
63203;SDS011;49297;43.210;27.914;2023-07-22T12:55:55;5.20;;;3.93;;
63203;SDS011;49297;43.210;27.914;2023-07-22T12:58:23;7.43;;;3.83;;
63203;SDS011;49297;43.210;27.914;2023-07-22T13:00:51;4.27;;;3.87;;
63203;SDS011;49297;43.210;27.914;2023-07-22T13:03:20;4.50;;;4.07;;
63203;SDS011;49297;43.210;27.914;2023-07-22T13:05:48;7.03;;;4.03;;
63203;SDS011;49297;43.210;27.914;2023-07-22T13:08:17;6.67;;;4.13;;
63203;SDS011;49297;43.210;27.914;2023-07-22T13:10:45;5.82;;;3.78;;
63203;SDS011;49297;43.210;27.914;2023-07-22T13:13:13;6.50;;;4.50;;
63203;SDS011;49297;43.210;27.914;2023-07-22T13:15:42;18.10;;;6.05;;
63203;SDS011;49297;43.210;27.914;2023-07-22T13:18:14;6.05;;;4.15;;
63203;SDS011;49297;43.210;27.914;2023-07-22T13:20:43;10.02;;;4.20;;
63203;SDS011;49297;43.210;27.914;2023-07-22T13:23:11;4.82;;;3.50;;
63203;SDS011;49297;43.210;27.914;2023-07-22T13:25:40;4.00;;;3.60;;
63203;SDS011;49297;43.210;27.914;2023-07-22T13:28:08;4.10;;;3.63;;
63203;SDS011;49297;43.210;27.914;2023-07-22T13:30:41;8.13;;;4.55;;
63203;SDS011;49297;43.210;27.914;2023-07-22T13:33:09;5.40;;;4.30;;
63203;SDS011;49297;43.210;27.914;2023-07-22T13:35:39;4.70;;;4.03;;
63203;SDS011;49297;43.210;27.914;2023-07-22T13:38:08;5.13;;;4.03;;
63203;SDS011;49297;43.210;27.914;2023-07-22T13:40:36;5.05;;;4.55;;
63203;SDS011;49297;43.210;27.914;2023-07-22T13:43:08;3.92;;;3.63;;
63203;SDS011;49297;43.210;27.914;2023-07-22T13:45:40;4.50;;;4.10;;
63203;SDS011;49297;43.210;27.914;2023-07-22T13:48:08;5.15;;;3.95;;
63203;SDS011;49297;43.210;27.914;2023-07-22T13:50:38;4.30;;;3.90;;
63203;SDS011;49297;43.210;27.914;2023-07-22T13:53:07;5.72;;;4.30;;
63203;SDS011;49297;43.210;27.914;2023-07-22T13:55:34;5.65;;;4.38;;
63203;SDS011;49297;43.210;27.914;2023-07-22T13:58:04;6.50;;;3.65;;
63203;SDS011;49297;43.210;27.914;2023-07-22T14:00:37;5.03;;;4.15;;
63203;SDS011;49297;43.210;27.914;2023-07-22T14:03:06;4.63;;;4.15;;
63203;SDS011;49297;43.210;27.914;2023-07-22T14:05:38;6.13;;;3.80;;
63203;SDS011;49297;43.210;27.914;2023-07-22T14:08:06;5.30;;;3.63;;
63203;SDS011;49297;43.210;27.914;2023-07-22T14:10:35;7.32;;;4.05;;
63203;SDS011;49297;43.210;27.914;2023-07-22T14:13:04;5.65;;;3.90;;
63203;SDS011;49297;43.210;27.914;2023-07-22T14:15:32;7.67;;;4.87;;
63203;SDS011;49297;43.210;27.914;2023-07-22T14:18:02;5.43;;;4.05;;
63203;SDS011;49297;43.210;27.914;2023-07-22T14:20:30;7.22;;;4.32;;
63203;SDS011;49297;43.210;27.914;2023-07-22T14:22:59;10.05;;;4.30;;
63203;SDS011;49297;43.210;27.914;2023-07-22T14:25:27;6.03;;;4.03;;
63203;SDS011;49297;43.210;27.914;2023-07-22T14:27:55;8.23;;;3.92;;
63203;SDS011;49297;43.210;27.914;2023-07-22T14:30:24;4.50;;;4.10;;
63203;SDS011;49297;43.210;27.914;2023-07-22T14:32:52;4.95;;;4.30;;
63203;SDS011;49297;43.210;27.914;2023-07-22T14:35:21;3.53;;;3.23;;
63203;SDS011;49297;43.210;27.914;2023-07-22T14:37:50;5.50;;;3.40;;
63203;SDS011;49297;43.210;27.914;2023-07-22T14:40:18;4.38;;;3.97;;
63203;SDS011;49297;43.210;27.914;2023-07-22T14:42:46;5.88;;;3.88;;
63203;SDS011;49297;43.210;27.914;2023-07-22T14:45:15;4.72;;;4.05;;
63203;SDS011;49297;43.210;27.914;2023-07-22T14:47:43;4.10;;;3.70;;
63203;SDS011;49297;43.210;27.914;2023-07-22T14:50:11;4.50;;;4.10;;